Time;durP1;ratioP1;P1;durP2;ratioP2;P2;SDS_P1;SDS_P2;PMS_P1;PMS_P2;Temp;Humidity;BMP_temperature;BMP_pressure;BME280_temperature;BME280_humidity;BME280_pressure;Samples;Min_cycle;Max_cycle;Signal;HPM_P1;HPM_P2
2022/05/28 07:59:03;;;;;;;5.32;2.15;;;;;;;13.92;53.42;102103.56;5321662;27;20887;-72
2022/05/28 08:01:36;;;;;;;4.60;1.80;;;;;;;14.14;55.23;102099.63;5321658;28;20033;-72
2022/05/28 08:04:09;;;;;;;7.53;2.17;;;;;;;14.32;53.52;102100.97;5318319;28;20479;-72
2022/05/28 08:06:41;;;;;;;6.35;1.52;;;;;;;14.54;56.15;102090.28;5321356;28;20111;-72
2022/05/28 08:09:12;;;;;;;4.32;2.22;;;;;;;14.53;52.56;102091.41;5322165;28;20119;-73
2022/05/28 08:11:44;;;;;;;3.92;1.50;;;;;;;14.52;51.47;102088.84;5322296;28;20020;-72
2022/05/28 08:14:15;;;;;;;6.03;1.30;;;;;;;14.51;52.06;102087.19;5321543;28;20024;-73
2022/05/28 08:16:46;;;;;;;4.32;2.83;;;;;;;14.48;53.60;102087.78;5322015;28;20024;-74
2022/05/28 08:19:18;;;;;;;5.28;1.85;;;;;;;14.22;54.35;102079.50;5322035;28;20043;-75
2022/05/28 08:24:39;;;;;;;8.35;2.75;;;;;;;14.01;54.47;102083.47;5321773;28;20031;-76
2022/05/28 08:27:10;;;;;;;8.90;2.17;;;;;;;14.00;53.68;102087.38;5320664;28;20455;-72
2022/05/28 08:29:41;;;;;;;7.90;2.13;;;;;;;14.07;54.57;102083.19;5321951;28;20020;-75
2022/05/28 08:32:16;;;;;;;3.70;1.50;;;;;;;14.43;53.75;102080.25;5321935;28;20024;-76
2022/05/28 08:34:48;;;;;;;4.78;1.48;;;;;;;14.59;54.56;102086.63;5318637;28;20024;-72
2022/05/28 08:37:19;;;;;;;4.22;1.70;;;;;;;14.49;51.93;102081.06;5320764;28;20539;-76
2022/05/28 08:39:50;;;;;;;4.05;1.50;;;;;;;14.69;50.73;102091.34;5320243;28;20020;-75
2022/05/28 08:42:25;;;;;;;8.57;2.45;;;;;;;14.73;50.60;102086.84;5320585;28;20028;-75
2022/05/28 08:45:02;;;;;;;7.95;2.25;;;;;;;14.84;50.78;102080.06;5321480;28;20024;-75
2022/05/28 08:47:40;;;;;;;8.27;1.73;;;;;;;14.75;50.96;102082.66;5321519;28;20495;-75
2022/05/28 08:50:12;;;;;;;6.97;1.73;;;;;;;14.88;51.41;102078.38;5321287;28;20023;-75
2022/05/28 08:52:49;;;;;;;5.85;2.55;;;;;;;15.05;51.24;102086.34;5320654;28;20039;-75
2022/05/28 08:55:24;;;;;;;12.20;5.10;;;;;;;14.97;49.82;102084.19;5319449;28;20577;-75
2022/05/28 08:58:05;;;;;;;5.95;1.92;;;;;;;15.17;48.78;102081.25;5321013;28;20387;-75
2022/05/28 09:00:43;;;;;;;3.90;1.42;;;;;;;15.22;49.15;102085.97;5321280;28;20028;-74
2022/05/28 09:03:18;;;;;;;3.28;1.27;;;;;;;15.46;49.54;102080.44;5319445;28;20063;-75
2022/05/28 09:05:57;;;;;;;4.70;1.30;;;;;;;15.54;49.47;102076.19;5319394;28;20103;-75
2022/05/28 09:08:34;;;;;;;6.32;1.60;;;;;;;15.51;49.31;102074.00;5314543;28;20031;-76
2022/05/28 09:11:13;;;;;;;6.80;2.30;;;;;;;15.23;48.33;102082.88;5305847;28;20024;-76
2022/05/28 09:13:50;;;;;;;38.92;32.97;;;;;;;15.15;49.52;102085.47;5306206;28;20114;-76
2022/05/28 09:16:30;;;;;;;5.43;2.28;;;;;;;15.04;51.00;102089.47;5305801;28;20024;-77
2022/05/28 09:19:10;;;;;;;3.92;1.80;;;;;;;14.87;50.94;102081.47;5306812;28;20028;-77
2022/05/28 09:21:43;;;;;;;4.85;1.70;;;;;;;14.92;51.38;102081.44;5306904;28;20035;-76
2022/05/28 09:24:20;;;;;;;6.90;2.20;;;;;;;14.94;53.51;102084.78;5305433;28;20035;-78
2022/05/28 09:27:32;;;;;;;7.40;1.88;;;;;;;14.91;53.42;102075.00;5302409;28;20547;-77
2022/05/28 09:30:31;;;;;;;6.90;1.67;;;;;;;14.92;52.90;102070.25;5303834;28;20101;-76
2022/05/28 09:33:08;;;;;;;5.72;2.35;;;;;;;15.17;52.38;102072.03;5302706;28;20051;-75
2022/05/28 09:36:00;;;;;;;6.75;2.30;;;;;;;15.32;50.16;102076.69;5298447;28;20085;-75
2022/05/28 09:38:48;;;;;;;6.85;3.30;;;;;;;15.39;48.30;102068.75;5304589;28;20080;-71
2022/05/28 09:41:38;;;;;;;5.35;1.75;;;;;;;15.43;47.40;102069.88;5301732;28;20036;-71
2022/05/28 09:44:41;;;;;;;8.65;4.20;;;;;;;15.52;48.34;102067.25;5305676;28;20397;-73
2022/05/28 09:47:16;;;;;;;5.32;1.85;;;;;;;15.28;48.10;102078.38;5274788;28;20051;-72
2022/05/28 09:49:56;;;;;;;3.53;1.50;;;;;;;15.35;48.56;102073.28;5305793;28;20024;-72
2022/05/28 09:52:31;;;;;;;7.75;3.17;;;;;;;15.25;47.48;102076.16;5303215;28;20431;-72
2022/05/28 09:55:17;;;;;;;5.45;1.58;;;;;;;15.27;47.04;102071.13;5305980;28;20023;-72
2022/05/28 09:57:52;;;;;;;;;;;;;;;15.40;47.33;102073.25;5305985;28;20135;-73
2022/05/28 10:00:24;;;;;;;5.40;2.13;;;;;;;15.56;48.01;102074.78;5305350;28;20101;-72
2022/05/28 10:05:56;;;;;;;5.68;2.40;;;;;;;15.45;48.64;102064.81;5304784;28;20066;-71
2022/05/28 10:08:32;;;;;;;4.18;1.90;;;;;;;15.54;49.23;102065.84;5300455;28;20032;-72
2022/05/28 10:11:06;;;;;;;10.43;2.33;;;;;;;15.66;49.31;102068.25;5296424;28;20028;-72
2022/05/28 10:13:49;;;;;;;7.38;1.80;;;;;;;15.80;48.39;102062.84;5303088;28;20127;-74
2022/05/28 10:16:24;;;;;;;7.40;2.00;;;;;;;15.90;47.53;102059.94;5300954;28;20047;-77
2022/05/28 10:18:58;;;;;;;6.00;2.03;;;;;;;15.84;48.00;102058.31;5305136;28;20047;-73
2022/05/28 10:21:33;;;;;;;6.10;2.20;;;;;;;15.64;48.77;102057.34;5302876;28;20024;-72
2022/05/28 10:24:14;;;;;;;5.03;2.13;;;;;;;15.63;48.65;102068.84;5305654;28;20024;-74
2022/05/28 10:27:13;;;;;;;4.75;1.20;;;;;;;15.60;46.04;102067.47;5304128;28;20429;-75
2022/05/28 10:29:48;;;;;;;4.50;1.77;;;;;;;15.66;46.38;102062.66;5304398;28;20118;-73
2022/05/28 10:32:30;;;;;;;9.40;1.63;;;;;;;15.80;45.70;102057.25;5305474;28;20344;-73
2022/05/28 10:35:13;;;;;;;6.55;2.90;;;;;;;16.14;48.38;102056.31;5303645;28;20364;-73
2022/05/28 10:37:45;;;;;;;5.35;1.88;;;;;;;16.26;44.79;102048.34;5303847;28;20032;-75
2022/05/28 10:40:26;;;;;;;8.82;2.38;;;;;;;16.14;44.37;102057.16;5303872;28;20081;-72
2022/05/28 10:43:02;;;;;;;3.10;1.30;;;;;;;15.99;43.20;102058.16;5304715;28;20020;-73
2022/05/28 10:45:43;;;;;;;82.60;73.47;;;;;;;16.07;44.92;102063.09;5304931;28;20321;-71
2022/05/28 10:48:33;;;;;;;26.45;23.65;;;;;;;16.08;46.48;102061.16;5302626;28;20480;-72
2022/05/28 10:51:34;;;;;;;5.50;1.90;;;;;;;16.24;43.52;102042.19;5304499;28;20036;-72
2022/05/28 10:54:46;;;;;;;5.72;2.00;;;;;;;16.29;41.90;102053.31;5304631;28;20036;-72
2022/05/28 10:57:51;;;;;;;5.47;2.03;;;;;;;16.26;40.59;102056.72;5304429;28;20051;-71
2022/05/28 11:00:28;;;;;;;5.93;1.52;;;;;;;16.24;40.40;102045.00;5303859;28;20027;-72
2022/05/28 11:03:22;;;;;;;4.28;1.52;;;;;;;16.36;41.77;102039.81;5300868;28;20020;-77
2022/05/28 11:06:23;;;;;;;5.18;2.83;;;;;;;16.46;42.80;102048.06;5285154;28;20058;-79
2022/05/28 11:09:18;;;;;;;4.90;2.00;;;;;;;16.57;41.86;102057.16;5290331;28;20399;-77
2022/05/28 11:11:56;;;;;;;5.63;1.58;;;;;;;16.65;41.86;102055.66;5303541;28;20031;-82
2022/05/28 11:14:39;;;;;;;9.23;2.90;;;;;;;16.55;42.01;102051.03;5303828;28;20040;-72
2022/05/28 11:17:25;;;;;;;17.55;11.82;;;;;;;16.36;42.10;102041.75;5289263;28;20036;-78
2022/05/28 11:20:07;;;;;;;13.07;5.28;;;;;;;16.03;42.87;102045.25;5296287;28;20023;-83
2022/05/28 11:22:52;;;;;;;6.40;2.15;;;;;;;16.03;43.04;102034.06;5304016;28;20035;-83
2022/05/28 11:25:46;;;;;;;7.40;2.75;;;;;;;16.34;41.20;102039.25;5304074;28;20055;-79
2022/05/28 11:28:48;;;;;;;5.47;1.83;;;;;;;16.51;38.54;102044.34;5304487;28;20384;-80
2022/05/28 11:31:33;;;;;;;5.07;1.30;;;;;;;16.48;38.71;102040.19;5302924;28;20471;-78
2022/05/28 11:34:16;;;;;;;3.35;2.22;;;;;;;16.51;39.40;102035.94;5303991;28;20031;-79
2022/05/28 11:36:57;;;;;;;7.20;3.00;;;;;;;16.79;40.93;102028.56;5303840;28;20103;-79
2022/05/28 11:39:48;;;;;;;2.78;1.60;;;;;;;16.94;40.60;102031.13;5303993;28;20077;-79
2022/05/28 11:42:31;;;;;;;3.17;1.25;;;;;;;16.88;38.07;102026.75;5303767;28;20093;-79
2022/05/28 11:45:10;;;;;;;6.03;2.00;;;;;;;17.05;37.84;102025.38;5303854;28;20027;-79
2022/05/28 11:48:07;;;;;;;4.00;1.92;;;;;;;17.06;37.50;102027.03;5303372;28;20043;-79
2022/05/28 11:53:52;;;;;;;4.22;1.42;;;;;;;16.64;36.45;102031.56;5304294;28;20487;-78
2022/05/28 11:56:28;;;;;;;4.22;1.30;;;;;;;16.77;37.09;102025.22;5303391;28;20032;-79
2022/05/28 11:59:15;;;;;;;6.43;1.40;;;;;;;16.99;37.18;102018.19;5302075;28;20056;-78
2022/05/28 12:01:51;;;;;;;3.05;1.40;;;;;;;16.93;37.76;102012.66;5303425;28;20106;-79
2022/05/28 12:04:22;;;;;;;7.50;3.17;;;;;;;17.14;36.90;102013.16;5304284;28;20024;-79
2022/05/28 12:07:00;;;;;;;5.25;2.30;;;;;;;17.30;36.84;101999.72;5302324;28;20047;-80
2022/05/28 12:09:34;;;;;;;7.95;3.00;;;;;;;17.04;36.54;102006.91;5303049;28;20073;-77
2022/05/28 12:12:24;;;;;;;6.07;1.90;;;;;;;17.05;37.46;102000.13;5302199;28;20056;-77
2022/05/28 12:15:13;;;;;;;8.30;4.07;;;;;;;17.33;37.83;101998.25;5303101;28;20032;-76
2022/05/28 12:18:04;;;;;;;11.07;9.95;;;;;;;17.56;36.94;101993.63;5301723;28;20417;-84
2022/05/28 12:20:50;;;;;;;4.20;1.77;;;;;;;17.31;36.92;102000.56;5301675;28;20038;-81
2022/05/28 12:23:42;;;;;;;3.45;1.48;;;;;;;17.17;36.95;101998.53;5303370;28;20016;-81
2022/05/28 12:26:50;;;;;;;4.97;1.45;;;;;;;17.26;36.43;102001.47;5302241;28;20032;-81
2022/05/28 12:29:34;;;;;;;4.20;1.52;;;;;;;17.50;35.75;101992.06;5303473;28;20020;-81
2022/05/28 12:32:18;;;;;;;5.55;2.50;;;;;;;17.88;35.84;101984.34;5303966;28;20115;-81
2022/05/28 12:35:10;;;;;;;4.70;1.40;;;;;;;17.34;36.85;102000.75;5303288;28;20081;-80
2022/05/28 12:37:52;;;;;;;10.18;5.75;;;;;;;17.29;37.44;101989.66;5301319;28;20044;-80
2022/05/28 12:40:35;;;;;;;6.70;2.70;;;;;;;17.60;37.65;101980.66;5302532;28;20024;-81
2022/05/28 12:43:35;;;;;;;5.32;2.83;;;;;;;17.83;36.92;101983.63;5302368;28;20535;-82
2022/05/28 12:47:07;;;;;;;5.05;1.85;;;;;;;17.87;36.21;101979.88;5306988;28;20024;-80
2022/05/28 12:49:41;;;;;;;5.38;1.98;;;;;;;17.45;37.72;101970.56;5305192;28;20028;-81
2022/05/28 12:52:25;;;;;;;4.85;1.90;;;;;;;17.30;38.58;101974.47;5307397;28;20111;-80
2022/05/28 12:55:23;;;;;;;4.97;1.80;;;;;;;17.20;38.39;101983.06;5307339;28;20506;-83
2022/05/28 12:58:07;;;;;;;4.90;1.55;;;;;;;17.12;38.06;101976.19;5289375;28;20078;-83
2022/05/28 13:00:51;;;;;;;32.90;29.50;;;;;;;17.55;37.32;101973.16;5306897;28;20387;-74
2022/05/28 13:03:26;;;;;;;3.80;2.07;;;;;;;17.56;36.10;101972.06;5306722;28;20470;-78
2022/05/28 13:06:12;;;;;;;4.82;2.55;;;;;;;17.84;36.79;101957.22;5306201;28;20115;-80
2022/05/28 13:08:58;;;;;;;7.72;5.13;;;;;;;18.08;36.38;101965.44;5301703;28;20036;-75
2022/05/28 13:11:42;;;;;;;6.93;2.28;;;;;;;18.28;37.02;101975.34;5307055;28;20024;-74
2022/05/28 13:14:56;;;;;;;5.18;1.67;;;;;;;17.81;36.38;101972.69;5306136;28;20035;-75
2022/05/28 13:17:41;;;;;;;6.10;1.80;;;;;;;18.02;36.53;101962.72;5304686;28;20035;-75
2022/05/28 13:20:40;;;;;;;3.92;1.33;;;;;;;18.21;36.58;101956.97;5306770;28;20024;-75
2022/05/28 13:23:40;;;;;;;5.43;1.80;;;;;;;18.36;36.25;101964.22;5305660;28;20474;-76
2022/05/28 13:26:25;;;;;;;4.47;1.48;;;;;;;18.38;35.82;101953.53;5290274;28;20081;-72
2022/05/28 13:29:21;;;;;;;12.15;7.93;;;;;;;18.62;35.99;101958.84;5304608;28;20220;-75
2022/05/28 13:31:58;;;;;;;3.33;1.40;;;;;;;18.53;36.71;101951.47;5304493;28;20095;-76
2022/05/28 13:34:30;;;;;;;6.43;1.90;;;;;;;18.31;36.80;101950.31;5306088;28;20034;-81
2022/05/28 13:37:02;;;;;;;6.95;2.25;;;;;;;18.14;35.88;101956.56;5305636;28;20024;-76
2022/05/28 13:39:44;;;;;;;4.07;1.50;;;;;;;18.48;35.45;101949.63;5305573;28;20066;-78
2022/05/28 13:42:17;;;;;;;3.35;1.50;;;;;;;18.50;34.78;101941.72;5303818;28;20055;-77
2022/05/28 13:44:48;;;;;;;10.52;2.55;;;;;;;18.74;34.94;101941.44;5305563;28;20410;-76
2022/05/28 13:47:28;;;;;;;7.65;2.70;;;;;;;18.39;35.64;101937.50;5306404;28;20020;-76
2022/05/28 13:50:03;;;;;;;6.72;1.83;;;;;;;18.51;36.26;101939.72;5305484;28;20028;-77
2022/05/28 13:52:44;;;;;;;6.38;2.00;;;;;;;18.72;36.49;101943.72;5306151;28;20031;-70
2022/05/28 13:55:22;;;;;;;7.65;1.90;;;;;;;18.51;34.57;101949.00;5305158;28;20023;-75
2022/05/28 13:57:54;;;;;;;4.90;1.42;;;;;;;18.58;34.41;101943.75;5304331;28;20054;-76
2022/05/28 14:00:28;;;;;;;5.05;2.97;;;;;;;18.82;34.76;101945.50;5305778;28;20020;-76
2022/05/28 14:03:03;;;;;;;7.65;2.67;;;;;;;18.80;33.45;101943.00;5305993;28;20089;-75
2022/05/28 14:05:44;;;;;;;5.65;2.00;;;;;;;18.75;35.24;101936.63;5304872;28;20019;-75
2022/05/28 14:08:25;;;;;;;5.10;1.60;;;;;;;18.34;34.83;101943.22;5305138;28;20105;-76
2022/05/28 14:11:19;;;;;;;3.28;1.52;;;;;;;18.54;34.99;101939.94;5306058;28;20028;-76
2022/05/28 14:13:57;;;;;;;4.35;1.52;;;;;;;18.69;33.96;101933.94;5305778;28;20425;-75
2022/05/28 14:16:40;;;;;;;7.15;2.67;;;;;;;18.29;34.61;101929.31;5304419;28;20020;-82
2022/05/28 14:19:18;;;;;;;7.68;1.70;;;;;;;18.74;35.02;101935.81;5305622;28;20043;-83
2022/05/28 14:21:53;;;;;;;7.57;2.00;;;;;;;18.68;34.03;101934.25;5306001;28;20031;-81
2022/05/28 14:24:28;;;;;;;6.25;1.83;;;;;;;18.99;33.77;101939.97;5308298;28;20047;-80
2022/05/28 14:27:23;;;;;;;4.47;1.70;;;;;;;19.28;34.58;101933.06;5303930;28;20111;-81
2022/05/28 14:29:55;;;;;;;22.63;18.35;;;;;;;19.16;35.23;101924.38;5304822;28;20032;-81
2022/05/28 14:32:33;;;;;;;5.30;2.30;;;;;;;19.44;35.40;101937.09;5304433;28;20016;-83
2022/05/28 14:35:11;;;;;;;8.15;5.10;;;;;;;18.80;36.51;101943.00;5309861;28;20027;-76
2022/05/28 14:37:42;;;;;;;5.25;1.92;;;;;;;18.39;36.58;101929.91;5317395;28;20406;-77
2022/05/28 14:40:21;;;;;;;6.32;1.88;;;;;;;18.53;36.61;101946.69;5310002;28;20059;-79
2022/05/28 14:42:57;;;;;;;6.43;2.17;;;;;;;18.11;35.54;101940.34;5321750;28;20059;-80
2022/05/28 14:45:41;;;;;;;4.82;1.58;;;;;;;18.39;36.57;101931.88;5313209;28;20012;-79
2022/05/28 14:48:23;;;;;;;9.02;2.40;;;;;;;18.23;36.05;101932.22;5309823;28;20028;-77
2022/05/28 14:51:04;;;;;;;6.22;2.08;;;;;;;18.03;36.35;101932.69;5317798;28;20340;-74
2022/05/28 14:53:40;;;;;;;6.88;1.80;;;;;;;18.12;35.83;101933.59;5318889;28;20538;-77
2022/05/28 14:56:24;;;;;;;10.77;3.60;;;;;;;18.29;35.00;101923.69;5310216;28;20028;-78
2022/05/28 14:58:58;;;;;;;5.30;1.90;;;;;;;18.37;35.10;101914.50;5309344;28;20133;-80
2022/05/28 15:01:35;;;;;;;7.78;1.70;;;;;;;18.53;34.94;101917.78;5306256;28;20534;-80
2022/05/28 15:04:12;;;;;;;4.50;1.48;;;;;;;18.36;33.18;101929.72;5319918;28;20534;-79
2022/05/28 15:06:57;;;;;;;4.97;1.20;;;;;;;18.59;32.80;101922.13;5306999;28;20020;-79
2022/05/28 15:09:30;;;;;;;5.38;1.65;;;;;;;18.67;33.37;101924.19;5299428;28;20027;-80
2022/05/28 15:12:05;;;;;;;6.15;1.58;;;;;;;18.35;32.34;101923.25;5310093;28;20441;-80
2022/05/28 15:14:36;;;;;;;;;;;;;;;18.79;32.36;101926.44;5311726;28;20052;-80
2022/05/28 15:17:12;;;;;;;2.70;1.90;;;;;;;18.50;31.95;101924.84;5304146;28;20009;-84
2022/05/28 15:19:43;;;;;;;5.60;1.48;;;;;;;18.42;31.18;101929.25;5313367;28;20745;-83
2022/05/28 15:22:17;;;;;;;4.22;1.40;;;;;;;18.02;32.33;101917.81;5309095;28;20039;-87
2022/05/28 15:24:49;;;;;;;5.82;1.50;;;;;;;18.49;32.45;101928.00;5318771;28;20019;-88
2022/05/28 15:27:22;;;;;;;5.70;1.60;;;;;;;18.46;31.79;101918.22;5321747;28;20491;-86
2022/05/28 15:29:54;;;;;;;5.13;1.70;;;;;;;18.36;32.33;101918.47;5323109;28;20028;-80
2022/05/28 15:32:32;;;;;;;5.15;1.90;;;;;;;18.25;33.09;101923.47;5310735;28;20024;-81
2022/05/28 15:35:12;;;;;;;5.85;2.72;;;;;;;17.97;34.06;101917.09;5311702;28;20032;-81
2022/05/28 15:37:52;;;;;;;7.20;2.00;;;;;;;18.21;34.24;101912.06;5315243;28;20055;-81
2022/05/28 15:40:24;;;;;;;5.03;1.70;;;;;;;18.15;35.44;101913.34;5308775;28;20031;-80
2022/05/28 15:42:55;;;;;;;10.52;6.88;;;;;;;17.93;35.32;101914.09;5306814;28;20020;-82
2022/05/28 15:45:27;;;;;;;11.10;5.45;;;;;;;18.16;35.21;101905.72;5307024;28;20061;-82
2022/05/28 15:48:02;;;;;;;13.77;8.18;;;;;;;18.13;35.19;101910.00;5303352;28;20040;-79
2022/05/28 15:50:34;;;;;;;3.47;2.33;;;;;;;18.00;35.38;101910.88;5321076;28;20026;-87
2022/05/28 15:53:07;;;;;;;8.88;4.18;;;;;;;18.28;35.21;101911.63;5305950;28;20382;-87
2022/05/28 15:55:43;;;;;;;5.70;3.42;;;;;;;18.47;35.23;101900.22;5316394;28;20027;-86
2022/05/28 15:58:22;;;;;;;;;;;;;;;18.74;35.24;101915.28;5322049;28;20127;-82
2022/05/28 16:00:54;;;;;;;7.90;3.70;;;;;;;18.04;35.92;101921.13;5307034;28;19912;-88
2022/05/28 16:03:25;;;;;;;4.80;2.38;;;;;;;17.66;37.25;101906.47;5307575;28;20028;-87
2022/05/28 16:05:57;;;;;;;7.22;2.42;;;;;;;17.67;37.31;101901.72;5312446;28;20017;-89
2022/05/28 16:11:00;;;;;;;5.72;2.00;;;;;;;18.34;36.91;101910.34;5308077;28;20089;-88
2022/05/28 16:13:32;;;;;;;7.88;1.85;;;;;;;18.24;36.65;101900.19;5305400;28;20038;-88
2022/05/28 16:16:04;;;;;;;7.82;2.15;;;;;;;18.27;36.84;101909.13;5305799;28;20028;-87
2022/05/28 16:18:36;;;;;;;3.78;1.80;;;;;;;18.23;36.72;101900.53;5321543;28;20032;-85
2022/05/28 16:21:08;;;;;;;9.80;2.58;;;;;;;18.16;37.00;101902.94;5322178;28;20031;-86
2022/05/28 16:23:39;;;;;;;4.03;1.50;;;;;;;18.07;35.82;101913.22;5325580;28;20043;-91
2022/05/28 16:26:15;;;;;;;4.38;2.15;;;;;;;18.09;35.45;101908.97;5309030;28;20524;-89
2022/05/28 16:28:47;;;;;;;3.92;1.77;;;;;;;17.98;35.63;101901.91;5308573;28;20600;-84
2022/05/28 16:31:20;;;;;;;4.85;1.75;;;;;;;18.13;36.04;101903.56;5317856;28;20040;-88
2022/05/28 16:33:52;;;;;;;4.35;1.70;;;;;;;18.02;36.62;101906.59;5322566;28;20058;-88
2022/05/28 16:36:23;;;;;;;6.68;1.80;;;;;;;17.94;36.67;101906.50;5313346;28;20047;-88
2022/05/28 16:38:55;;;;;;;6.18;2.05;;;;;;;17.92;36.30;101900.34;5319907;28;20024;-89
2022/05/28 16:41:28;;;;;;;5.72;1.80;;;;;;;17.97;36.22;101894.63;5315258;28;20032;-88
2022/05/28 16:44:02;;;;;;;5.78;1.60;;;;;;;18.11;35.27;101900.22;5308391;28;20116;-89
2022/05/28 16:46:33;;;;;;;3.42;1.38;;;;;;;18.42;34.67;101905.97;5324395;28;20478;-87
2022/05/28 16:49:05;;;;;;;5.18;1.38;;;;;;;18.10;35.27;101904.16;5326781;28;20040;-87
2022/05/28 16:51:36;;;;;;;5.47;1.90;;;;;;;18.22;35.11;101894.06;5309483;28;20031;-79
2022/05/28 16:54:07;;;;;;;7.38;2.60;;;;;;;18.36;35.25;101890.41;5318064;28;20038;-79
2022/05/28 16:56:41;;;;;;;3.22;1.33;;;;;;;18.11;35.55;101901.06;5322628;28;20028;-78
2022/05/28 16:59:17;;;;;;;4.50;1.60;;;;;;;18.17;35.16;101894.16;5311055;28;20089;-79
2022/05/28 17:01:48;;;;;;;5.65;1.67;;;;;;;18.21;35.90;101878.38;5328200;28;20033;-81
2022/05/28 17:04:19;;;;;;;5.68;2.00;;;;;;;18.05;35.67;101882.69;5332044;28;20499;-87
2022/05/28 17:06:51;;;;;;;3.30;1.50;;;;;;;18.45;35.59;101882.84;5313651;28;20020;-86
2022/05/28 17:09:22;;;;;;;8.57;2.20;;;;;;;18.29;35.45;101876.78;5312950;28;20020;-86
2022/05/28 17:11:56;;;;;;;4.07;1.63;;;;;;;18.03;35.61;101880.19;5302072;28;20021;-82
2022/05/28 17:14:27;;;;;;;5.50;3.53;;;;;;;18.12;36.03;101885.88;5317971;28;20043;-88
2022/05/28 17:17:01;;;;;;;3.88;1.58;;;;;;;18.03;35.98;101883.00;5318810;28;20023;-85
2022/05/28 17:19:34;;;;;;;5.70;2.20;;;;;;;18.35;36.58;101889.53;5312574;28;20020;-87
2022/05/28 17:22:09;;;;;;;4.90;1.55;;;;;;;18.20;36.90;101882.34;5314429;28;20036;-87
2022/05/28 17:24:40;;;;;;;;;;;;;;;18.37;36.10;101880.81;5316673;28;20024;-87
2022/05/28 17:27:11;;;;;;;5.77;1.50;;;;;;;18.17;36.99;101882.13;5314180;28;19912;-87
2022/05/28 17:29:43;;;;;;;3.58;1.35;;;;;;;18.15;36.41;101884.41;5307101;28;20035;-88
